Time;durP1;ratioP1;P1;durP2;ratioP2;P2;SDS_P1;SDS_P2;PMS_P1;PMS_P2;Temp;Humidity;BMP_temperature;BMP_pressure;BME280_temperature;BME280_humidity;BME280_pressure;Samples;Min_cycle;Max_cycle;Signal;HPM_P1;HPM_P2
2022/01/29 00:00:54;;;;;;;5.38;4.00;;;;;;;18.58;52.61;98251.53;10449941;28;20299;-22
2022/01/29 00:05:56;;;;;;;8.25;3.10;;;;;;;18.58;52.31;98246.44;10428767;28;20029;-21
2022/01/29 00:11:06;;;;;;;5.18;3.63;;;;;;;18.57;52.83;98247.28;10418693;28;20112;-21
2022/01/29 00:16:07;;;;;;;6.75;3.22;;;;;;;18.55;52.81;98233.66;10458313;28;20041;-22
2022/01/29 00:21:07;;;;;;;7.57;3.35;;;;;;;18.59;52.76;98231.25;10432305;28;20548;-22
2022/01/29 00:26:08;;;;;;;5.23;2.97;;;;;;;18.60;52.74;98237.19;10424579;28;20047;-21
2022/01/29 00:31:10;;;;;;;4.78;3.60;;;;;;;18.58;52.77;98238.84;10457426;28;20277;-22
2022/01/29 00:36:10;;;;;;;3.80;2.75;;;;;;;18.59;52.88;98225.31;10455666;28;20056;-22
2022/01/29 00:41:11;;;;;;;4.00;2.70;;;;;;;18.63;52.58;98211.88;10445867;28;20037;-22
2022/01/29 00:46:11;;;;;;;4.32;2.58;;;;;;;18.62;52.90;98215.25;10415719;28;20049;-22
2022/01/29 00:51:11;;;;;;;5.30;2.77;;;;;;;18.61;52.64;98211.00;10415973;28;20287;-22
2022/01/29 00:56:12;;;;;;;4.03;2.77;;;;;;;18.62;52.73;98222.84;10424957;28;20607;-22
2022/01/29 01:01:12;;;;;;;4.67;2.83;;;;;;;18.61;53.02;98218.59;10456421;28;20298;-22
2022/01/29 01:06:13;;;;;;;5.40;3.33;;;;;;;18.58;52.71;98198.25;10434166;28;20707;-22
2022/01/29 01:11:13;;;;;;;4.70;3.03;;;;;;;18.56;53.02;98194.78;10424551;28;20492;-22
2022/01/29 01:16:14;;;;;;;5.27;2.93;;;;;;;18.59;52.85;98189.81;10455350;28;20037;-22
2022/01/29 01:21:15;;;;;;;3.40;2.47;;;;;;;18.60;52.71;98187.28;10438858;28;20319;-22
2022/01/29 01:26:15;;;;;;;3.15;2.40;;;;;;;18.58;52.78;98175.41;10415607;28;20026;-22
2022/01/29 01:31:16;;;;;;;5.60;2.72;;;;;;;18.62;52.60;98182.25;10455780;28;20033;-22
2022/01/29 01:36:20;;;;;;;2.57;2.27;;;;;;;18.62;52.54;98169.56;10434325;28;20033;-23
2022/01/29 01:41:25;;;;;;;6.63;2.85;;;;;;;18.59;52.57;98169.53;10424355;28;20049;-22
2022/01/29 01:46:25;;;;;;;2.40;2.05;;;;;;;18.59;52.70;98166.97;10455052;28;20108;-22
2022/01/29 01:51:26;;;;;;;3.53;2.57;;;;;;;18.60;52.40;98192.34;10452679;28;20033;-22
2022/01/29 01:56:26;;;;;;;4.60;2.20;;;;;;;18.57;52.61;98181.31;10436992;28;20037;-22
2022/01/29 02:01:27;;;;;;;2.20;1.95;;;;;;;18.57;52.31;98161.03;10454260;28;20045;-22
2022/01/29 02:06:28;;;;;;;3.00;1.88;;;;;;;18.59;52.53;98170.34;10433924;28;20034;-22
2022/01/29 02:11:29;;;;;;;3.60;2.10;;;;;;;18.60;52.55;98161.09;10424719;28;20039;-22
2022/01/29 02:16:31;;;;;;;4.07;2.20;;;;;;;18.58;52.86;98152.59;10453085;28;20455;-22
2022/01/29 02:21:36;;;;;;;2.85;2.15;;;;;;;18.63;52.36;98133.22;10420637;28;20068;-22
2022/01/29 02:26:36;;;;;;;3.90;2.22;;;;;;;18.62;52.47;98129.00;10423828;28;20044;-22
2022/01/29 02:31:45;;;;;;;3.10;2.27;;;;;;;18.62;52.47;98118.84;10452639;28;20409;-22
2022/01/29 02:36:46;;;;;;;3.28;2.33;;;;;;;18.61;52.21;98112.06;10450123;28;20302;-21
2022/01/29 02:41:47;;;;;;;2.83;2.25;;;;;;;18.59;52.29;98113.72;10435369;28;20034;-21
2022/01/29 02:46:51;;;;;;;3.78;2.22;;;;;;;18.56;52.44;98108.56;10410546;28;20106;-22
2022/01/29 02:51:54;;;;;;;3.25;1.92;;;;;;;18.56;52.39;98113.63;10411133;28;20402;-22
2022/01/29 02:56:55;;;;;;;2.90;1.88;;;;;;;18.58;52.47;98105.22;10410832;28;20495;-22
2022/01/29 03:01:55;;;;;;;2.30;1.83;;;;;;;18.59;52.21;98098.50;10410732;28;20029;-22
2022/01/29 03:06:55;;;;;;;3.77;2.30;;;;;;;18.50;52.45;98078.00;10437196;28;20310;-22
2022/01/29 03:11:57;;;;;;;4.03;2.13;;;;;;;18.57;52.49;98090.84;10433610;28;20086;-22
2022/01/29 03:16:57;;;;;;;3.05;2.03;;;;;;;18.62;52.20;98083.31;10409144;28;20060;-22
2022/01/29 03:21:58;;;;;;;2.87;1.80;;;;;;;18.63;51.81;98075.75;10422942;28;20044;-22
2022/01/29 03:26:58;;;;;;;3.17;2.10;;;;;;;18.60;52.29;98069.75;10420636;28;20314;-22
2022/01/29 03:31:58;;;;;;;3.47;2.10;;;;;;;18.54;52.26;98069.63;10442971;28;20032;-22
2022/01/29 03:36:59;;;;;;;2.90;1.57;;;;;;;18.58;52.35;98072.25;10442579;28;20033;-22
2022/01/29 03:42:03;;;;;;;4.50;2.23;;;;;;;18.60;52.56;98069.75;10445414;28;20049;-22
2022/01/29 03:47:04;;;;;;;4.00;2.13;;;;;;;18.57;52.90;98067.19;10444380;28;20507;-22
2022/01/29 03:52:05;;;;;;;4.20;2.13;;;;;;;18.58;52.82;98063.81;10423584;28;20030;-22
2022/01/29 03:57:05;;;;;;;3.92;2.38;;;;;;;18.59;52.95;98068.91;10425609;28;20128;-22
2022/01/29 04:02:05;;;;;;;5.53;1.73;;;;;;;18.60;52.79;98069.75;10449420;28;20376;-22
2022/01/29 04:07:10;;;;;;;4.97;2.10;;;;;;;18.57;52.92;98065.47;10447922;28;20033;-22
2022/01/29 04:12:11;;;;;;;2.63;1.85;;;;;;;18.61;53.04;98059.66;10447994;28;20283;-22
2022/01/29 04:17:11;;;;;;;4.00;2.10;;;;;;;18.60;52.88;98041.88;10448625;28;20128;-22
2022/01/29 04:22:12;;;;;;;2.78;1.70;;;;;;;18.57;53.17;98050.25;10447670;28;20037;-22
2022/01/29 04:27:19;;;;;;;2.97;2.23;;;;;;;18.57;53.29;98049.41;10438811;28;20091;-22
2022/01/29 04:32:28;;;;;;;3.38;1.77;;;;;;;18.58;53.01;98024.06;10449722;28;20509;-22
2022/01/29 04:37:28;;;;;;;2.70;1.60;;;;;;;18.55;53.25;98020.59;10447152;28;20037;-22
2022/01/29 04:42:29;;;;;;;3.63;2.13;;;;;;;18.58;53.25;98018.16;10426778;28;20045;-22
2022/01/29 04:47:29;;;;;;;2.43;1.90;;;;;;;18.59;53.08;98009.72;10407791;28;20045;-22
2022/01/29 04:52:30;;;;;;;2.77;1.83;;;;;;;18.57;53.24;98006.31;10407633;28;20492;-22
2022/01/29 04:57:30;;;;;;;3.22;2.03;;;;;;;18.60;53.16;98012.25;10431203;28;20108;-22
2022/01/29 05:02:30;;;;;;;4.60;1.80;;;;;;;18.62;53.07;98002.16;10456827;28;20530;-22
2022/01/29 05:07:31;;;;;;;2.47;1.60;;;;;;;18.65;53.05;98012.34;10431653;28;20046;-22
2022/01/29 05:12:44;;;;;;;2.92;1.95;;;;;;;18.63;53.00;98012.34;10435344;28;20075;-22
2022/01/29 05:28:21;;;;;;;2.45;1.67;;;;;;;18.63;53.09;98019.09;10436944;28;20126;-23
2022/01/29 05:33:22;;;;;;;3.33;1.50;;;;;;;18.66;52.96;98034.38;10449234;28;20039;-22
2022/01/29 05:38:22;;;;;;;2.50;1.83;;;;;;;18.63;53.25;98034.31;10450057;28;20300;-22
2022/01/29 05:43:23;;;;;;;4.20;1.77;;;;;;;18.62;53.05;98033.47;10449285;28;20041;-22
2022/01/29 05:48:23;;;;;;;2.70;1.80;;;;;;;18.63;53.23;98041.91;10450558;28;20029;-22
2022/01/29 05:53:23;;;;;;;3.50;1.80;;;;;;;18.64;52.91;98051.22;10416190;28;20295;-22
2022/01/29 05:58:24;;;;;;;1.93;1.63;;;;;;;18.62;53.08;98063.03;10436385;28;20535;-22
2022/01/29 06:03:24;;;;;;;3.22;1.27;;;;;;;18.63;53.30;98064.75;10449516;28;20047;-22
2022/01/29 06:08:24;;;;;;;2.07;1.57;;;;;;;18.61;53.14;98081.63;10414309;28;20037;-22
2022/01/29 06:13:25;;;;;;;3.77;2.10;;;;;;;18.62;53.01;98088.41;10408675;28;20331;-22
2022/01/29 06:18:25;;;;;;;5.73;1.30;;;;;;;18.64;53.28;98101.97;10410958;28;20108;-22
2022/01/29 06:23:33;;;;;;;2.78;1.40;;;;;;;18.65;53.15;98113.81;10450146;28;20029;-22
2022/01/29 06:28:34;;;;;;;2.85;1.70;;;;;;;18.65;53.02;98119.78;10447623;28;20033;-22
2022/01/29 06:33:35;;;;;;;3.28;2.00;;;;;;;18.63;53.17;98141.72;10447110;28;20665;-23
2022/01/29 06:38:36;;;;;;;2.88;1.40;;;;;;;18.66;53.21;98158.69;10448463;28;20053;-22
2022/01/29 06:43:36;;;;;;;3.25;1.50;;;;;;;18.68;53.12;98137.56;10446755;28;20033;-22
2022/01/29 06:48:36;;;;;;;2.23;1.30;;;;;;;18.65;53.29;98144.25;10402588;28;20037;-23
2022/01/29 06:53:37;;;;;;;4.20;1.87;;;;;;;18.66;53.68;98131.63;10417504;28;20061;-22
2022/01/29 06:58:37;;;;;;;5.20;2.03;;;;;;;18.66;53.45;98157.00;10391178;28;20453;-22
2022/01/29 07:03:37;;;;;;;9.87;2.33;;;;;;;18.66;53.19;98151.09;10379578;28;20476;-22
2022/01/29 07:08:39;;;;;;;3.33;1.40;;;;;;;18.68;53.27;98151.97;10424612;28;20029;-22
2022/01/29 07:13:39;;;;;;;4.55;1.73;;;;;;;18.69;53.15;98133.38;10409995;28;20091;-22
2022/01/29 07:18:40;;;;;;;4.73;2.33;;;;;;;18.73;52.37;98125.00;10416705;28;20033;-22
2022/01/29 07:23:40;;;;;;;3.03;2.20;;;;;;;18.65;52.53;98126.50;10450796;28;20283;-22
2022/01/29 07:28:40;;;;;;;3.83;2.47;;;;;;;18.66;52.90;98138.41;10440358;28;20315;-22
2022/01/29 07:33:41;;;;;;;6.13;2.40;;;;;;;18.72;52.74;98166.41;10441905;28;20048;-22
2022/01/29 07:38:41;;;;;;;6.43;2.30;;;;;;;18.68;52.73;98152.81;10408884;28;20049;-22
2022/01/29 07:43:42;;;;;;;4.83;2.60;;;;;;;18.71;52.66;98159.63;10429646;28;20034;-22
2022/01/29 07:48:42;;;;;;;6.27;2.97;;;;;;;18.71;52.97;98157.09;10405334;28;20778;-22
2022/01/29 07:53:43;;;;;;;7.70;2.38;;;;;;;18.69;53.13;98151.13;10439654;28;20038;-22
2022/01/29 07:58:43;;;;;;;14.57;2.75;;;;;;;18.69;53.35;98171.44;10425398;28;20393;-22
2022/01/29 08:03:48;;;;;;;10.27;2.87;;;;;;;18.62;54.40;98156.91;10383382;28;20079;-22
2022/01/29 08:08:49;;;;;;;15.10;4.35;;;;;;;18.66;55.04;98162.06;10406972;28;20180;-22
2022/01/29 08:13:50;;;;;;;7.57;3.03;;;;;;;18.74;53.33;98174.94;10421664;28;20040;-22
2022/01/29 08:18:51;;;;;;;14.60;3.80;;;;;;;18.71;51.61;98179.94;10405422;28;20034;-22
2022/01/29 08:23:51;;;;;;;11.10;4.68;;;;;;;18.69;50.66;98166.34;10404553;28;20307;-22
2022/01/29 08:28:52;;;;;;;12.48;5.82;;;;;;;18.63;48.81;98161.13;10433885;28;20051;-22
2022/01/29 08:33:52;;;;;;;11.30;4.70;;;;;;;18.58;48.90;98165.28;10438764;28;20040;-22
2022/01/29 08:38:53;;;;;;;11.75;4.43;;;;;;;18.63;50.72;98161.13;10408825;28;20128;-22
2022/01/29 08:43:53;;;;;;;17.63;4.97;;;;;;;18.69;50.79;98168.91;10433507;28;20045;-22
2022/01/29 08:48:53;;;;;;;12.27;4.57;;;;;;;18.72;51.09;98169.81;10411884;28;20463;-22
2022/01/29 08:53:54;;;;;;;18.17;4.80;;;;;;;18.66;51.47;98168.84;10421737;28;20296;-22
2022/01/29 08:58:54;;;;;;;7.53;3.57;;;;;;;18.73;51.57;98178.28;10442436;28;20047;-22
2022/01/29 09:03:55;;;;;;;9.93;3.70;;;;;;;18.67;51.67;98158.69;10426947;28;20654;-22
2022/01/29 09:08:55;;;;;;;14.93;4.28;;;;;;;18.76;51.33;98175.81;10433154;28;20439;-22
2022/01/29 09:13:56;;;;;;;13.07;7.22;;;;;;;18.08;43.92;98173.34;10397519;28;20423;-20
2022/01/29 09:18:56;;;;;;;21.90;6.17;;;;;;;18.15;49.17;98168.44;10409961;28;20030;-21
2022/01/29 09:23:57;;;;;;;32.40;6.00;;;;;;;18.27;45.60;98181.44;10384831;28;20786;-21
2022/01/29 09:28:57;;;;;;;18.70;5.57;;;;;;;18.09;48.75;98180.13;10433068;28;20079;-22
2022/01/29 09:33:58;;;;;;;9.80;4.50;;;;;;;18.37;48.74;98165.63;10418691;28;20036;-22
2022/01/29 09:38:58;;;;;;;16.93;3.97;;;;;;;18.48;49.84;98155.72;10435587;28;20291;-22
2022/01/29 09:43:58;;;;;;;8.80;3.40;;;;;;;18.50;50.05;98149.88;10451912;28;20299;-22
2022/01/29 09:48:59;;;;;;;11.90;3.50;;;;;;;18.50;50.29;98154.09;10451176;28;20853;-22
2022/01/29 09:54:00;;;;;;;9.70;3.38;;;;;;;18.48;50.80;98153.19;10413116;28;20087;-21
2022/01/29 09:59:01;;;;;;;11.80;3.88;;;;;;;18.49;51.08;98152.38;10445464;28;20037;-22
2022/01/29 10:04:06;;;;;;;9.75;3.70;;;;;;;18.50;51.14;98149.88;10452325;28;20041;-22
2022/01/29 10:09:11;;;;;;;6.30;3.00;;;;;;;18.48;51.21;98156.59;10454056;28;20029;-22
2022/01/29 10:14:11;;;;;;;6.07;2.70;;;;;;;18.46;51.27;98140.50;10417855;28;20068;-22
2022/01/29 10:19:13;;;;;;;6.63;2.87;;;;;;;18.45;51.66;98142.97;10412498;28;20038;-22
2022/01/29 10:24:15;;;;;;;5.47;2.22;;;;;;;18.46;51.42;98142.16;10447244;28;20495;-22
2022/01/29 10:29:21;;;;;;;4.70;2.70;;;;;;;18.42;51.59;98135.31;10443592;28;20057;-22
2022/01/29 10:34:29;;;;;;;7.03;2.60;;;;;;;18.48;51.60;98127.81;10450176;28;20503;-22
2022/01/29 10:39:29;;;;;;;5.95;2.67;;;;;;;18.46;51.60;98132.00;10452890;28;20511;-22
2022/01/29 10:44:43;;;;;;;5.13;2.13;;;;;;;18.45;51.60;98125.22;10414179;28;20045;-22
2022/01/29 10:49:55;;;;;;;6.05;2.58;;;;;;;18.41;51.86;98113.31;10428901;28;20032;-22
2022/01/29 10:54:59;;;;;;;4.38;2.72;;;;;;;18.44;51.90;98113.38;10434834;28;20499;-22
2022/01/29 11:00:00;;;;;;;5.25;2.15;;;;;;;18.41;51.82;98105.72;10447770;28;20518;-22
2022/01/29 11:05:03;;;;;;;6.13;2.30;;;;;;;18.39;51.96;98104.78;10427581;28;20116;-22
2022/01/29 11:10:07;;;;;;;4.05;2.33;;;;;;;18.39;51.83;98094.66;10405810;28;20045;-22
2022/01/29 11:15:08;;;;;;;4.30;2.50;;;;;;;18.39;51.88;98079.44;10447260;28;20095;-22
2022/01/29 11:20:10;;;;;;;4.18;2.38;;;;;;;18.37;51.94;98076.88;10433549;28;20121;-22
2022/01/29 11:25:14;;;;;;;4.25;2.20;;;;;;;18.37;51.92;98069.28;10406659;28;20041;-22
2022/01/29 11:30:15;;;;;;;3.85;2.10;;;;;;;18.34;51.76;98065.81;10446917;28;20039;-22
2022/01/29 11:35:29;;;;;;;2.88;1.90;;;;;;;18.38;51.92;98057.44;10444633;28;20029;-22
2022/01/29 11:40:56;;;;;;;4.72;1.90;;;;;;;18.38;51.86;98042.22;10440990;28;20030;-22
2022/01/29 11:46:05;;;;;;;4.05;2.50;;;;;;;18.29;51.94;98031.84;10405023;28;20492;-22
2022/01/29 11:51:10;;;;;;;4.40;2.28;;;;;;;18.37;51.80;98038.84;10417103;28;20047;-22
2022/01/29 11:56:28;;;;;;;3.08;1.90;;;;;;;18.34;51.92;98032.84;10429548;28;20132;-22
2022/01/29 12:01:31;;;;;;;4.35;2.03;;;;;;;18.22;51.79;98004.66;10449880;28;20037;-22
2022/01/29 12:06:34;;;;;;;4.22;1.85;;;;;;;18.34;52.13;98010.03;10423383;28;20037;-22
2022/01/29 12:11:41;;;;;;;3.78;1.90;;;;;;;18.33;51.82;98011.72;10421689;28;20032;-21
2022/01/29 12:16:58;;;;;;;6.45;2.42;;;;;;;18.34;51.93;97989.75;10449669;28;20547;-22
2022/01/29 12:21:59;;;;;;;3.15;2.00;;;;;;;18.33;52.12;97988.88;10448091;28;20041;-22
2022/01/29 12:27:00;;;;;;;3.10;2.13;;;;;;;18.32;52.05;97991.41;10438751;28;20095;-22
2022/01/29 12:32:02;;;;;;;4.87;1.90;;;;;;;18.31;52.05;97984.59;10449345;28;20223;-22
2022/01/29 12:37:13;;;;;;;5.00;1.95;;;;;;;18.32;51.81;97978.75;10417326;28;20034;-22
2022/01/29 12:47:30;;;;;;;2.60;2.25;;;;;;;18.30;51.91;97980.34;10448418;28;20037;-22
2022/01/29 12:52:31;;;;;;;2.05;1.67;;;;;;;18.29;52.16;97965.94;10447569;28;20037;-22
2022/01/29 12:57:45;;;;;;;2.10;1.58;;;;;;;18.28;52.07;97959.16;10411595;28;20041;-22
2022/01/29 13:02:48;;;;;;;2.35;1.52;;;;;;;18.30;52.04;97957.53;10407670;28;20089;-22
2022/01/29 13:07:49;;;;;;;3.15;1.63;;;;;;;18.26;52.01;97948.16;10361029;28;20140;-22
2022/01/29 13:12:50;;;;;;;3.95;2.13;;;;;;;18.26;51.88;97950.69;10286955;28;20293;-22
2022/01/29 13:17:50;;;;;;;2.70;1.67;;;;;;;18.11;52.23;97925.88;10288916;28;20552;-17
2022/01/29 13:22:51;;;;;;;1.35;1.23;;;;;;;18.26;52.21;97940.53;10292898;28;20494;-22
2022/01/29 13:28:12;;;;;;;3.65;1.63;;;;;;;18.27;52.17;97927.03;10306652;28;20149;-22
2022/01/29 13:33:18;;;;;;;2.25;1.33;;;;;;;18.24;52.12;97906.72;10332970;28;20049;-22
2022/01/29 13:38:22;;;;;;;;;;;;;;;18.25;52.03;97898.28;10299760;28;20039;-22
2022/01/29 13:43:40;;;;;;;2.78;2.13;;;;;;;18.19;52.39;97893.06;10292012;28;19941;-22
2022/01/29 13:48:49;;;;;;;3.00;1.50;;;;;;;18.18;52.09;97891.38;10291885;28;20050;-22
2022/01/29 13:53:50;;;;;;;3.05;1.70;;;;;;;18.17;52.03;97875.28;10298490;28;20034;-22
2022/01/29 13:59:01;;;;;;;1.80;1.43;;;;;;;18.18;52.07;97881.22;10299510;28;20038;-22
2022/01/29 14:04:02;;;;;;;1.58;1.42;;;;;;;18.18;52.04;97882.06;10291424;28;20043;-22
2022/01/29 14:09:06;;;;;;;3.17;1.30;;;;;;;18.15;52.34;97884.56;10290687;28;20089;-22
2022/01/29 14:14:07;;;;;;;2.38;1.50;;;;;;;18.13;52.08;97862.53;10290499;28;20390;-22
2022/01/29 14:19:19;;;;;;;1.80;1.53;;;;;;;18.22;52.39;97873.72;10290312;28;20043;-22
2022/01/29 14:24:20;;;;;;;1.25;1.15;;;;;;;18.23;52.14;97874.53;10291408;28;20038;-22
2022/01/29 14:29:21;;;;;;;1.92;1.73;;;;;;;18.20;52.40;97865.22;10316300;28;20521;-22
2022/01/29 14:34:22;;;;;;;2.38;1.60;;;;;;;18.19;51.96;97858.47;10318815;28;20043;-22
2022/01/29 14:39:24;;;;;;;1.63;1.23;;;;;;;18.11;52.24;97870.13;10290392;28;20043;-22
2022/01/29 14:44:26;;;;;;;2.92;1.40;;;;;;;18.09;51.91;97856.53;10289640;28;20521;-23
2022/01/29 14:49:26;;;;;;;1.85;1.70;;;;;;;18.09;52.00;97854.00;10289523;28;20401;-22
2022/01/29 14:54:26;;;;;;;2.67;2.08;;;;;;;18.08;52.08;97871.75;10300779;28;20048;-22
2022/01/29 14:59:27;;;;;;;1.40;1.30;;;;;;;18.08;51.50;97872.56;10292527;28;20047;-22
2022/01/29 15:04:28;;;;;;;2.58;1.48;;;;;;;18.08;51.78;97869.22;10289220;28;20035;-22
2022/01/29 15:09:29;;;;;;;3.22;1.13;;;;;;;18.07;51.61;97859.91;10288909;28;20460;-22
2022/01/29 15:14:30;;;;;;;1.23;1.13;;;;;;;18.08;52.09;97869.22;10288693;28;20070;-22
2022/01/29 15:19:30;;;;;;;2.80;1.70;;;;;;;18.15;52.27;97871.88;10289074;28;20449;-22
2022/01/29 15:24:30;;;;;;;1.53;1.43;;;;;;;18.17;52.32;97875.28;10288094;28;20039;-22
2022/01/29 15:29:31;;;;;;;2.33;1.73;;;;;;;18.17;52.14;97869.38;10315776;28;20700;-22
2022/01/29 15:34:31;;;;;;;2.22;1.40;;;;;;;18.07;51.98;97870.03;10327496;28;20041;-22
2022/01/29 15:39:33;;;;;;;2.10;1.20;;;;;;;17.84;52.06;97835.78;10288319;28;20066;-22
2022/01/29 15:44:34;;;;;;;2.22;1.40;;;;;;;18.05;51.70;97876.72;10287624;28;20070;-22
2022/01/29 15:49:34;;;;;;;2.10;1.40;;;;;;;18.04;51.72;97875.91;10287372;28;20398;-22
2022/01/29 15:54:34;;;;;;;1.17;1.00;;;;;;;18.04;51.96;97897.81;10296963;28;20290;-22
2022/01/29 15:59:35;;;;;;;2.83;1.03;;;;;;;18.05;51.80;97904.59;10285830;28;20313;-22
2022/01/29 16:04:35;;;;;;;1.70;1.40;;;;;;;18.04;51.52;97915.56;10284205;28;20110;-22
2022/01/29 16:09:36;;;;;;;1.30;1.13;;;;;;;18.03;51.26;97912.19;10283813;28;20290;-22
2022/01/29 16:14:37;;;;;;;1.92;1.23;;;;;;;18.03;52.30;97921.47;10280955;28;20143;-22
2022/01/29 16:19:38;;;;;;;1.58;1.33;;;;;;;18.10;52.42;97913.16;10282798;28;20523;-22
2022/01/29 16:24:38;;;;;;;1.92;1.17;;;;;;;18.13;52.23;97910.69;10282873;28;20031;-22
2022/01/29 16:29:38;;;;;;;2.13;1.40;;;;;;;18.05;52.20;97924.88;10310801;28;20038;-22
2022/01/29 16:34:39;;;;;;;1.70;1.58;;;;;;;18.03;51.80;97942.59;10307887;28;20318;-22
2022/01/29 16:39:40;;;;;;;1.00;0.90;;;;;;;17.99;51.26;97938.28;10286867;28;20065;-22
2022/01/29 16:44:41;;;;;;;1.10;1.00;;;;;;;17.99;51.57;97934.91;10286945;28;20561;-22
2022/01/29 16:49:42;;;;;;;1.45;1.10;;;;;;;17.99;51.01;97940.81;10286042;28;20122;-22
2022/01/29 16:54:42;;;;;;;1.50;1.07;;;;;;;17.98;51.63;97928.13;10305970;28;20121;-22
2022/01/29 16:59:45;;;;;;;1.13;0.98;;;;;;;17.98;51.30;97928.13;10295031;28;20078;-22
2022/01/29 17:04:47;;;;;;;1.10;1.00;;;;;;;17.98;51.22;97918.84;10293108;28;20387;-22
2022/01/29 17:09:47;;;;;;;1.05;1.05;;;;;;;17.97;51.35;97909.53;10293905;28;20073;-22
2022/01/29 17:14:48;;;;;;;1.20;1.00;;;;;;;18.03;52.14;97886.84;10293742;28;20066;-22
2022/01/29 17:19:48;;;;;;;1.65;1.30;;;;;;;18.08;52.20;97889.47;10292979;28;20035;-22
2022/01/29 17:24:48;;;;;;;1.47;0.90;;;;;;;18.07;52.04;97887.78;10292765;28;20386;-22
2022/01/29 17:29:50;;;;;;;1.57;1.00;;;;;;;17.99;51.81;97907.03;10322613;28;20054;-22
2022/01/29 17:34:50;;;;;;;1.48;1.15;;;;;;;17.93;51.50;97915.34;10315672;28;20808;-22
2022/01/29 17:39:51;;;;;;;1.05;0.95;;;;;;;17.93;51.58;97905.19;10292242;28;20049;-22
2022/01/29 17:44:51;;;;;;;1.17;0.97;;;;;;;17.94;51.29;97906.06;10292194;28;20046;-22
2022/01/29 17:49:52;;;;;;;1.70;1.00;;;;;;;17.92;51.55;97897.59;10292389;28;20192;-22
2022/01/29 17:54:53;;;;;;;2.55;1.10;;;;;;;17.92;51.31;97913.63;10307142;28;20436;-22
2022/01/29 17:59:53;;;;;;;1.63;1.20;;;;;;;17.84;50.81;97904.19;10291445;28;20039;-22
2022/01/29 18:04:54;;;;;;;1.07;0.90;;;;;;;17.94;51.24;97916.22;10289931;28;20521;-22
2022/01/29 18:09:54;;;;;;;1.77;1.00;;;;;;;17.92;51.03;97922.94;10291418;28;20077;-22
2022/01/29 18:14:57;;;;;;;1.15;1.00;;;;;;;17.99;51.93;97919.72;10290978;28;20054;-22
2022/01/29 18:19:57;;;;;;;1.38;0.95;;;;;;;17.95;52.14;97907.78;10291512;28;20039;-22
2022/01/29 18:24:58;;;;;;;1.45;1.35;;;;;;;17.97;51.98;97888.38;10291113;28;20049;-22
2022/01/29 18:29:58;;;;;;;0.80;0.77;;;;;;;17.93;51.62;97909.44;10322517;28;20030;-22
2022/01/29 18:34:59;;;;;;;1.00;0.67;;;;;;;17.90;51.41;97919.50;10324972;28;20066;-20
2022/01/29 18:40:08;;;;;;;1.10;0.90;;;;;;;17.87;51.23;97911.84;10290002;28;20931;-22
2022/01/29 18:45:11;;;;;;;1.23;1.13;;;;;;;17.89;51.08;97900.03;10289413;28;20042;-22
2022/01/29 18:50:12;;;;;;;0.82;0.75;;;;;;;17.88;51.01;97900.88;10288929;28;20034;-22
2022/01/29 18:55:13;;;;;;;1.05;0.93;;;;;;;17.88;50.93;97903.41;10304997;28;20592;-21
2022/01/29 19:00:14;;;;;;;1.00;0.87;;;;;;;17.87;50.98;97910.16;10289169;28;20113;-22
2022/01/29 19:05:16;;;;;;;1.75;1.00;;;;;;;17.83;50.91;97903.31;10288706;28;20337;-22
2022/01/29 19:10:18;;;;;;;0.90;0.70;;;;;;;17.85;50.86;97906.75;10289229;28;20161;-22
2022/01/29 19:15:20;;;;;;;1.48;1.00;;;;;;;17.89;52.32;97908.50;10288007;28;20633;-23
2022/01/29 19:20:22;;;;;;;1.25;1.00;;;;;;;17.94;52.04;97901.88;10288415;28;20062;-22
2022/01/29 19:25:23;;;;;;;1.25;0.95;;;;;;;17.92;51.90;97920.41;10287731;28;20563;-23
2022/01/29 19:30:23;;;;;;;1.08;0.98;;;;;;;17.87;51.19;97929.56;10323012;28;20081;-22
2022/01/29 19:35:23;;;;;;;1.08;0.80;;;;;;;17.85;50.96;97921.09;10306718;28;20046;-22
2022/01/29 19:40:25;;;;;;;1.00;0.90;;;;;;;17.84;51.27;97921.91;10287797;28;20038;-22
2022/01/29 19:45:25;;;;;;;1.00;0.60;;;;;;;17.83;51.21;97918.50;10287773;28;20053;-22
2022/01/29 19:50:26;;;;;;;1.08;0.98;;;;;;;17.82;50.79;97903.28;10287397;28;20387;-22
2022/01/29 19:55:26;;;;;;;0.82;0.82;;;;;;;17.80;51.05;97892.25;10303058;28;20057;-22
2022/01/29 20:00:28;;;;;;;0.80;0.70;;;;;;;17.81;51.43;97896.50;10287862;28;20034;-22
2022/01/29 20:05:29;;;;;;;1.63;1.15;;;;;;;17.75;51.02;97903.97;10286850;28;20803;-22
2022/01/29 20:10:31;;;;;;;1.00;0.90;;;;;;;17.84;51.12;97914.31;10287228;28;20030;-22
2022/01/29 20:15:31;;;;;;;1.30;1.02;;;;;;;17.85;52.08;97913.47;10287239;28;20035;-22
2022/01/29 20:20:32;;;;;;;0.83;0.60;;;;;;;17.91;52.05;97929.66;10287427;28;20051;-22
2022/01/29 20:25:33;;;;;;;0.70;0.70;;;;;;;17.88;52.16;97926.19;10286636;28;20501;-22
2022/01/29 20:30:34;;;;;;;0.80;0.80;;;;;;;17.60;51.73;97899.44;10329836;28;20038;-22
2022/01/29 20:35:34;;;;;;;0.80;0.80;;;;;;;17.81;51.00;97934.50;10321026;28;20472;-22
2022/01/29 20:40:35;;;;;;;1.03;0.83;;;;;;;17.77;50.87;97909.94;10294159;28;20031;-22
2022/01/29 20:45:35;;;;;;;0.70;0.70;;;;;;;17.79;50.94;97920.94;10295042;28;20333;-22
2022/01/29 20:50:35;;;;;;;1.40;1.03;;;;;;;17.76;51.12;97905.69;10294921;28;20034;-22
2022/01/29 20:55:36;;;;;;;0.68;0.68;;;;;;;17.76;50.99;97906.53;10309788;28;20490;-22
2022/01/29 21:00:36;;;;;;;0.67;0.50;;;;;;;17.76;50.82;97890.50;10293908;28;20506;-22
2022/01/29 21:05:37;;;;;;;1.35;1.15;;;;;;;17.71;50.85;97865.06;10294126;28;20035;-22
2022/01/29 21:10:37;;;;;;;1.00;0.85;;;;;;;17.74;50.83;97846.56;10293901;28;20482;-22
2022/01/29 21:15:38;;;;;;;1.00;0.93;;;;;;;17.78;51.74;97845.78;10293493;28;20128;-22
2022/01/29 21:20:38;;;;;;;0.77;0.77;;;;;;;17.86;51.84;97851.84;10292544;28;20521;-22
2022/01/29 21:25:40;;;;;;;1.13;1.00;;;;;;;17.80;51.78;97826.38;10292747;28;20549;-22
2022/01/29 21:30:41;;;;;;;1.10;0.80;;;;;;;17.76;51.25;97819.56;10329658;28;20117;-22
2022/01/29 21:35:42;;;;;;;0.60;0.60;;;;;;;17.73;51.15;97815.28;10311411;28;20130;-22
2022/01/29 21:40:44;;;;;;;1.02;0.85;;;;;;;17.72;50.99;97811.06;10292377;28;20065;-22
2022/01/29 21:45:45;;;;;;;1.33;0.90;;;;;;;17.73;51.13;97809.38;10292085;28;20085;-22
2022/01/29 21:50:45;;;;;;;0.80;0.77;;;;;;;17.71;51.01;97816.06;10292042;28;20092;-22
2022/01/29 21:55:46;;;;;;;0.80;0.73;;;;;;;17.73;50.83;97830.47;10307483;28;20039;-22
2022/01/29 22:00:46;;;;;;;0.83;0.70;;;;;;;17.71;50.67;97821.13;10292011;28;20784;-22
2022/01/29 22:05:47;;;;;;;0.90;0.80;;;;;;;17.70;51.06;97821.97;10291182;28;20302;-22
2022/01/29 22:10:49;;;;;;;0.52;0.50;;;;;;;17.70;50.99;97824.50;10291550;28;20365;-22
2022/01/29 22:15:51;;;;;;;0.80;0.60;;;;;;;17.70;52.01;97819.44;10292262;28;20030;-22
2022/01/29 22:20:52;;;;;;;0.70;0.47;;;;;;;17.78;52.10;97807.78;10290669;28;20043;-22
2022/01/29 22:25:53;;;;;;;1.13;0.70;;;;;;;17.79;52.01;97817.09;10290678;28;20555;-23
2022/01/29 22:30:53;;;;;;;0.80;0.70;;;;;;;17.72;51.03;97820.31;10329026;28;20084;-22
2022/01/29 22:35:55;;;;;;;0.67;0.67;;;;;;;17.68;51.12;97805.91;10305335;28;20034;-22
2022/01/29 22:40:56;;;;;;;0.70;0.68;;;;;;;17.66;50.97;97815.16;10289995;28;20106;-22
2022/01/29 22:45:56;;;;;;;0.70;0.70;;;;;;;17.58;51.02;97797.25;10289715;28;20040;-22
2022/01/29 22:50:57;;;;;;;0.38;0.38;;;;;;;17.65;51.15;97816.81;10288538;28;20663;-22
2022/01/29 22:55:57;;;;;;;0.57;0.53;;;;;;;17.65;51.18;97815.97;10305024;28;20031;-22
2022/01/29 23:00:57;;;;;;;0.60;0.60;;;;;;;17.66;50.81;97815.16;10289386;28;20807;-22
2022/01/29 23:06:00;;;;;;;0.68;0.65;;;;;;;17.62;50.90;97801.56;10288618;28;20298;-22
2022/01/29 23:11:13;;;;;;;0.70;0.70;;;;;;;17.64;51.04;97801.56;10288318;28;20037;-22
2022/01/29 23:16:29;;;;;;;0.63;0.63;;;;;;;17.55;51.29;97801.38;10288523;28;20043;-22
2022/01/29 23:21:45;;;;;;;1.00;0.70;;;;;;;17.64;52.00;97799.03;10288176;28;20093;-22
2022/01/29 23:26:51;;;;;;;0.88;0.60;;;;;;;17.74;51.84;97811.09;10293556;28;20042;-22
2022/01/29 23:32:04;;;;;;;0.32;0.32;;;;;;;17.66;51.32;97812.63;10328881;28;20110;-22
2022/01/29 23:52:44;;;;;;;0.60;0.60;;;;;;;17.59;50.98;97796.41;10275375;28;20302;-22